Time;durP1;ratioP1;P1;durP2;ratioP2;P2;SDS_P1;SDS_P2;PMS_P1;PMS_P2;Temp;Humidity;BMP_temperature;BMP_pressure;BME280_temperature;BME280_humidity;BME280_pressure;Samples;Min_cycle;Max_cycle;Signal;HPM_P1;HPM_P2
2021/06/29 00:01:29;;;;;;;6.53;5.70;;;25.00;60.20;;;;;;4931719;28;20468;-85
2021/06/29 00:03:55;;;;;;;6.57;5.57;;;25.00;60.20;;;;;;4943185;28;20042;-85
2021/06/29 00:06:21;;;;;;;6.10;5.50;;;25.00;60.20;;;;;;4920697;28;20487;-85
2021/06/29 00:08:46;;;;;;;6.90;5.03;;;25.00;60.20;;;;;;4948865;28;20035;-86
2021/06/29 00:11:16;;;;;;;5.88;5.07;;;25.00;60.30;;;;;;4932175;28;20085;-85
2021/06/29 00:13:43;;;;;;;6.15;5.30;;;24.90;60.30;;;;;;4958734;28;20031;-85
2021/06/29 00:16:09;;;;;;;6.13;5.13;;;24.90;60.30;;;;;;4947604;28;20021;-85
2021/06/29 00:18:35;;;;;;;6.80;5.68;;;24.90;60.30;;;;;;4984637;28;20026;-86
2021/06/29 00:21:01;;;;;;;6.03;5.25;;;24.90;60.30;;;;;;4951834;28;20019;-86
2021/06/29 00:23:27;;;;;;;6.53;5.80;;;24.90;60.40;;;;;;4964157;28;20035;-86
2021/06/29 00:25:52;;;;;;;6.68;5.60;;;24.80;60.40;;;;;;4959792;28;20134;-85
2021/06/29 00:28:18;;;;;;;6.18;5.45;;;24.80;60.40;;;;;;4952231;28;20486;-85
2021/06/29 00:30:44;;;;;;;6.75;5.57;;;24.80;60.50;;;;;;4951025;28;20341;-85
2021/06/29 00:33:10;;;;;;;6.50;5.53;;;24.80;60.50;;;;;;4941934;28;20038;-85
2021/06/29 00:35:36;;;;;;;6.18;5.40;;;24.80;60.50;;;;;;4949260;28;20475;-85
2021/06/29 00:38:02;;;;;;;6.72;5.75;;;24.80;60.50;;;;;;4970491;28;20395;-85
2021/06/29 00:40:29;;;;;;;6.07;4.93;;;24.70;60.50;;;;;;4963222;28;20030;-84
2021/06/29 00:42:55;;;;;;;5.78;5.03;;;24.70;60.60;;;;;;4952418;28;20023;-84
2021/06/29 00:45:21;;;;;;;6.70;5.40;;;24.70;60.70;;;;;;4963270;28;20122;-84
2021/06/29 00:47:47;;;;;;;6.03;5.35;;;24.70;60.60;;;;;;4930378;28;20462;-84
2021/06/29 00:50:15;;;;;;;6.07;5.43;;;24.60;60.60;;;;;;4948887;28;20043;-84
2021/06/29 00:52:41;;;;;;;6.75;5.40;;;24.60;60.60;;;;;;4975999;28;20046;-84
2021/06/29 00:55:10;;;;;;;7.55;6.32;;;24.60;60.70;;;;;;4952364;28;20027;-84
2021/06/29 00:57:36;;;;;;;5.93;5.32;;;24.60;60.70;;;;;;4947564;28;20034;-85
2021/06/29 01:00:07;;;;;;;6.55;5.55;;;24.60;60.70;;;;;;4969996;28;20030;-85
2021/06/29 01:02:33;;;;;;;6.28;5.40;;;24.60;60.80;;;;;;4968597;28;20062;-85
2021/06/29 01:04:59;;;;;;;5.88;5.28;;;24.60;60.80;;;;;;4928454;28;20058;-84
2021/06/29 01:07:25;;;;;;;6.68;5.97;;;24.50;60.70;;;;;;4967122;28;20062;-85
2021/06/29 01:09:50;;;;;;;6.47;5.75;;;24.50;60.80;;;;;;4943601;28;20715;-85
2021/06/29 01:12:16;;;;;;;6.95;5.93;;;24.50;60.80;;;;;;4928004;28;20038;-86
2021/06/29 01:14:42;;;;;;;6.90;5.65;;;24.50;60.90;;;;;;4965477;28;20365;-85
2021/06/29 01:17:08;;;;;;;6.30;5.45;;;24.50;60.90;;;;;;4965480;28;20049;-85
2021/06/29 01:22:07;;;;;;;6.57;5.70;;;24.50;61.00;;;;;;4984805;28;20130;-85
2021/06/29 01:24:34;;;;;;;6.28;5.28;;;24.40;60.90;;;;;;4967921;28;20480;-85
2021/06/29 01:32:15;;;;;;;6.68;5.25;;;24.40;61.70;;;;;;4959804;28;20446;-85
2021/06/29 01:34:41;;;;;;;6.72;5.22;;;24.40;61.10;;;;;;4964591;28;20066;-84
2021/06/29 01:37:07;;;;;;;6.30;5.32;;;24.40;61.10;;;;;;4952517;28;20077;-84
2021/06/29 01:39:33;;;;;;;6.15;5.20;;;24.30;61.10;;;;;;4955856;28;20038;-84
2021/06/29 01:41:58;;;;;;;6.22;5.57;;;24.30;61.10;;;;;;4947211;28;20038;-84
2021/06/29 01:44:28;;;;;;;6.90;5.15;;;24.30;61.10;;;;;;4955621;28;20030;-84
2021/06/29 01:46:55;;;;;;;6.72;5.65;;;24.30;61.10;;;;;;4964114;28;20047;-84
2021/06/29 01:49:26;;;;;;;6.55;5.45;;;24.30;61.20;;;;;;4984840;28;20031;-83
2021/06/29 01:51:55;;;;;;;6.15;5.25;;;24.20;61.20;;;;;;4968446;28;20042;-84
2021/06/29 01:54:22;;;;;;;6.85;5.30;;;24.20;61.20;;;;;;4945230;28;20118;-84
2021/06/29 01:56:48;;;;;;;6.30;5.30;;;24.30;61.30;;;;;;4970535;28;20054;-84
2021/06/29 01:59:17;;;;;;;6.20;5.07;;;24.20;61.30;;;;;;4947703;28;20031;-84
2021/06/29 02:01:44;;;;;;;6.50;5.00;;;24.20;61.30;;;;;;4988751;28;20510;-83
2021/06/29 02:04:11;;;;;;;6.97;5.30;;;24.20;61.30;;;;;;4952986;28;20050;-83
2021/06/29 02:06:38;;;;;;;6.15;5.15;;;24.20;61.40;;;;;;4952058;28;20125;-84
2021/06/29 02:09:08;;;;;;;6.38;5.20;;;24.20;61.40;;;;;;4951318;28;20023;-83
2021/06/29 02:11:36;;;;;;;6.70;5.60;;;24.10;61.50;;;;;;4963598;28;20488;-84
2021/06/29 02:14:03;;;;;;;5.75;4.65;;;24.10;61.50;;;;;;4940734;29;20039;-84
2021/06/29 02:16:28;;;;;;;6.50;5.03;;;24.10;61.50;;;;;;4958256;28;20030;-85
2021/06/29 02:18:54;;;;;;;7.03;5.55;;;24.10;61.50;;;;;;4985310;28;20041;-85
2021/06/29 02:21:20;;;;;;;7.20;5.63;;;24.10;61.50;;;;;;4943664;28;20077;-84
2021/06/29 02:23:46;;;;;;;7.20;5.30;;;24.10;61.50;;;;;;4931979;28;20424;-86
2021/06/29 02:26:12;;;;;;;6.22;4.97;;;24.10;61.60;;;;;;4982894;28;20027;-85
2021/06/29 02:28:37;;;;;;;6.88;5.55;;;24.00;61.60;;;;;;4965256;28;20053;-84
2021/06/29 02:31:03;;;;;;;6.57;5.05;;;24.00;61.60;;;;;;4947779;28;20042;-83
2021/06/29 02:33:29;;;;;;;6.50;5.18;;;24.00;61.60;;;;;;4942638;28;20046;-84
2021/06/29 02:35:55;;;;;;;6.45;5.15;;;24.00;61.70;;;;;;4965207;28;20485;-84
2021/06/29 02:38:22;;;;;;;6.72;5.72;;;24.00;61.70;;;;;;4947271;28;20015;-85
2021/06/29 02:40:48;;;;;;;5.95;4.85;;;24.00;61.80;;;;;;4958849;28;20049;-84
2021/06/29 02:43:15;;;;;;;7.25;5.57;;;24.00;61.80;;;;;;4962161;28;20023;-85
2021/06/29 02:45:43;;;;;;;7.75;5.90;;;24.00;61.80;;;;;;4929666;28;20037;-85
2021/06/29 02:48:09;;;;;;;6.90;5.22;;;24.00;61.90;;;;;;4953930;29;20058;-84
2021/06/29 02:50:35;;;;;;;7.00;5.55;;;23.90;61.90;;;;;;4958076;28;20026;-83
2021/06/29 02:53:01;;;;;;;7.35;5.30;;;23.90;62.00;;;;;;4958637;28;20090;-84
2021/06/29 02:55:27;;;;;;;6.78;5.35;;;24.00;62.00;;;;;;4967010;28;20059;-83
2021/06/29 02:57:52;;;;;;;6.90;5.28;;;23.90;62.00;;;;;;4958351;28;20133;-84
2021/06/29 03:00:20;;;;;;;6.43;5.15;;;23.90;62.00;;;;;;4947872;28;20041;-84
2021/06/29 03:02:46;;;;;;;6.60;5.40;;;23.90;62.00;;;;;;4948567;28;20375;-84
2021/06/29 03:05:13;;;;;;;7.40;5.40;;;23.90;62.00;;;;;;4935524;28;20030;-84
2021/06/29 03:07:39;;;;;;;6.95;5.50;;;23.90;62.10;;;;;;4967636;28;20055;-84
2021/06/29 03:10:06;;;;;;;6.22;5.05;;;23.90;62.00;;;;;;4950147;28;20065;-84
2021/06/29 03:12:33;;;;;;;6.93;5.68;;;23.90;62.00;;;;;;4965946;28;20054;-83
2021/06/29 03:15:00;;;;;;;7.03;5.63;;;23.80;62.00;;;;;;4937549;29;20062;-84
2021/06/29 03:17:27;;;;;;;6.38;5.18;;;23.80;62.00;;;;;;4951405;28;20023;-84
2021/06/29 03:19:52;;;;;;;6.07;4.95;;;23.80;62.00;;;;;;4932967;28;20073;-84
2021/06/29 03:22:19;;;;;;;6.68;4.97;;;23.80;62.00;;;;;;4967680;28;20117;-84
2021/06/29 03:24:45;;;;;;;6.13;4.55;;;23.80;62.00;;;;;;4949499;28;20034;-84
2021/06/29 03:27:12;;;;;;;5.28;4.28;;;23.80;62.00;;;;;;4927120;28;20027;-84
2021/06/29 03:29:38;;;;;;;6.00;4.88;;;23.80;62.10;;;;;;4946648;28;20019;-84
2021/06/29 03:32:07;;;;;;;6.13;4.80;;;23.80;62.10;;;;;;4949788;28;20031;-84
2021/06/29 03:34:33;;;;;;;5.93;4.53;;;23.70;62.10;;;;;;4974045;28;20023;-84
2021/06/29 03:37:02;;;;;;;6.38;5.43;;;23.70;62.10;;;;;;4948227;28;20045;-84
2021/06/29 03:39:29;;;;;;;5.78;4.78;;;23.70;62.20;;;;;;4969807;28;20093;-85
2021/06/29 03:41:55;;;;;;;5.47;4.70;;;23.70;62.20;;;;;;4961041;28;20035;-84
2021/06/29 03:44:21;;;;;;;5.68;4.50;;;23.70;62.20;;;;;;4945819;28;20027;-85
2021/06/29 03:46:47;;;;;;;5.90;4.90;;;23.70;62.20;;;;;;4942569;28;20427;-86
2021/06/29 03:49:13;;;;;;;6.28;4.78;;;23.70;62.20;;;;;;4936587;29;20076;-85
2021/06/29 03:51:39;;;;;;;5.57;4.60;;;23.70;62.20;;;;;;4944974;28;20113;-86
2021/06/29 03:54:05;;;;;;;6.10;4.72;;;23.70;62.20;;;;;;4981354;28;20361;-84
2021/06/29 03:56:32;;;;;;;5.32;4.53;;;23.70;62.20;;;;;;4966130;28;20023;-84
2021/06/29 03:59:07;;;;;;;5.85;4.55;;;23.70;62.20;;;;;;4965117;28;20118;-84
2021/06/29 04:01:34;;;;;;;6.00;4.90;;;23.60;62.30;;;;;;4977977;28;20037;-84
2021/06/29 04:04:00;;;;;;;5.95;4.88;;;23.70;62.20;;;;;;4960921;28;20050;-83
2021/06/29 04:06:28;;;;;;;6.07;4.80;;;23.60;62.20;;;;;;4964277;28;20054;-84
2021/06/29 04:08:55;;;;;;;5.88;4.70;;;23.60;62.20;;;;;;4968037;28;20113;-84
2021/06/29 04:11:25;;;;;;;6.38;5.00;;;23.60;62.30;;;;;;4938222;28;20486;-83
2021/06/29 04:13:51;;;;;;;5.60;4.60;;;23.60;62.30;;;;;;4977383;28;20044;-83
2021/06/29 04:16:18;;;;;;;5.93;4.78;;;23.60;62.30;;;;;;4930925;28;20035;-84
2021/06/29 04:18:44;;;;;;;5.38;4.65;;;23.60;62.30;;;;;;4941146;28;20035;-85
2021/06/29 04:21:10;;;;;;;6.10;4.82;;;23.50;62.20;;;;;;4981434;28;20034;-84
2021/06/29 04:23:36;;;;;;;6.28;5.22;;;23.60;62.30;;;;;;4953748;28;20456;-84
2021/06/29 04:26:03;;;;;;;6.32;4.80;;;23.50;62.30;;;;;;4928536;28;20031;-84
2021/06/29 04:28:29;;;;;;;5.70;4.57;;;23.50;62.30;;;;;;4965541;28;20165;-84
2021/06/29 04:30:55;;;;;;;6.57;4.78;;;23.60;62.30;;;;;;4955686;28;20082;-83
2021/06/29 04:33:21;;;;;;;5.10;4.28;;;23.50;62.30;;;;;;4962426;28;20468;-83
2021/06/29 04:35:48;;;;;;;5.45;4.35;;;23.50;62.30;;;;;;4968751;28;20026;-84
2021/06/29 04:38:14;;;;;;;5.93;4.50;;;23.50;62.30;;;;;;4956603;28;20023;-83
2021/06/29 04:40:39;;;;;;;5.25;4.20;;;23.50;62.30;;;;;;4942223;28;20476;-84
2021/06/29 04:43:05;;;;;;;5.43;4.22;;;23.50;62.30;;;;;;4979079;28;20586;-83
2021/06/29 04:45:31;;;;;;;5.80;4.30;;;23.50;62.30;;;;;;4964650;28;20040;-86
2021/06/29 04:47:57;;;;;;;5.45;4.53;;;23.50;62.30;;;;;;4956087;28;20051;-82
2021/06/29 04:50:24;;;;;;;6.30;4.70;;;23.50;62.30;;;;;;4939218;28;20085;-84
2021/06/29 04:52:50;;;;;;;6.10;4.70;;;23.50;62.40;;;;;;4942551;28;20129;-84
2021/06/29 04:55:18;;;;;;;6.07;4.65;;;23.50;62.30;;;;;;4944692;28;20082;-86
2021/06/29 04:57:44;;;;;;;5.47;4.50;;;23.50;62.40;;;;;;4952552;28;20034;-86
2021/06/29 05:00:15;;;;;;;5.38;4.28;;;23.50;62.40;;;;;;4972882;28;20052;-85
2021/06/29 05:02:41;;;;;;;5.63;4.50;;;23.50;62.40;;;;;;4964137;28;20053;-86
2021/06/29 05:05:08;;;;;;;5.43;4.40;;;23.50;62.40;;;;;;4964123;28;20022;-84
2021/06/29 05:07:37;;;;;;;5.60;4.60;;;23.50;62.40;;;;;;4943826;28;20090;-84
2021/06/29 05:10:07;;;;;;;5.78;4.38;;;23.50;62.40;;;;;;4981563;28;20015;-83
2021/06/29 05:12:33;;;;;;;5.40;4.10;;;23.50;62.40;;;;;;4956909;28;20073;-83
2021/06/29 05:14:59;;;;;;;5.57;4.47;;;23.50;62.40;;;;;;4964749;28;20026;-84
2021/06/29 05:17:25;;;;;;;5.55;4.65;;;23.50;62.30;;;;;;4972943;28;20150;-84
2021/06/29 05:19:51;;;;;;;5.00;4.10;;;23.50;62.40;;;;;;4945249;29;20421;-83
2021/06/29 05:22:18;;;;;;;6.22;4.80;;;23.50;62.40;;;;;;4948449;28;20489;-82
2021/06/29 05:24:43;;;;;;;5.22;4.25;;;23.50;62.40;;;;;;4964695;28;20019;-83
2021/06/29 05:27:09;;;;;;;4.95;4.07;;;23.50;62.40;;;;;;4957903;28;20026;-83
2021/06/29 05:29:35;;;;;;;4.88;4.05;;;23.40;62.40;;;;;;4955288;28;20109;-83
2021/06/29 05:32:01;;;;;;;5.38;4.32;;;23.50;62.40;;;;;;4945007;29;20043;-84
2021/06/29 05:34:26;;;;;;;5.85;4.60;;;23.50;62.40;;;;;;4964514;28;20035;-83
2021/06/29 05:36:52;;;;;;;5.20;4.35;;;23.50;62.40;;;;;;4964263;28;20117;-83
2021/06/29 05:39:18;;;;;;;5.38;4.25;;;23.50;62.40;;;;;;4964733;28;20031;-84
2021/06/29 05:41:44;;;;;;;5.90;4.47;;;23.50;62.40;;;;;;4942158;28;20026;-85
2021/06/29 05:44:11;;;;;;;5.90;4.63;;;23.50;62.50;;;;;;4966813;28;20026;-84
2021/06/29 05:46:38;;;;;;;6.38;4.63;;;23.50;63.10;;;;;;4949295;28;20038;-84
2021/06/29 05:49:09;;;;;;;5.03;4.00;;;23.50;62.50;;;;;;4955212;28;20097;-83
2021/06/29 05:51:35;;;;;;;5.35;4.38;;;23.50;62.50;;;;;;4983209;28;20465;-87
2021/06/29 05:54:00;;;;;;;4.63;3.78;;;23.50;62.40;;;;;;4943665;28;20134;-88
2021/06/29 05:56:26;;;;;;;5.35;4.38;;;23.50;63.20;;;;;;4960058;28;20038;-85
2021/06/29 05:58:52;;;;;;;5.57;4.40;;;23.50;62.50;;;;;;4950875;28;20082;-86
2021/06/29 06:01:18;;;;;;;6.43;4.90;;;23.50;62.50;;;;;;4925496;28;20449;-86
2021/06/29 06:03:43;;;;;;;5.03;4.07;;;23.50;62.50;;;;;;4988519;28;20034;-85
2021/06/29 06:06:09;;;;;;;6.22;5.00;;;23.50;62.50;;;;;;4952739;28;20089;-86
2021/06/29 06:08:35;;;;;;;6.03;4.60;;;23.50;62.50;;;;;;4968210;28;20035;-85
2021/06/29 06:11:01;;;;;;;5.60;4.38;;;23.50;62.50;;;;;;4942993;28;20506;-85
2021/06/29 06:13:26;;;;;;;5.97;4.50;;;23.50;62.50;;;;;;4963862;28;20047;-85
2021/06/29 06:15:53;;;;;;;5.47;4.60;;;23.50;62.50;;;;;;4964244;28;20019;-85
2021/06/29 06:18:19;;;;;;;5.57;4.40;;;23.50;62.60;;;;;;4953290;28;20026;-86
2021/06/29 06:20:45;;;;;;;6.00;4.72;;;23.50;63.20;;;;;;4964296;28;20026;-84
2021/06/29 06:23:12;;;;;;;5.88;4.75;;;23.50;62.60;;;;;;4970231;28;20043;-84
2021/06/29 06:25:38;;;;;;;5.68;4.57;;;23.50;62.70;;;;;;4962729;28;20038;-85
2021/06/29 06:28:04;;;;;;;6.40;4.90;;;23.50;62.80;;;;;;4959277;28;20035;-87
2021/06/29 06:30:31;;;;;;;5.40;4.18;;;23.50;62.80;;;;;;4967821;28;20502;-84
2021/06/29 06:32:56;;;;;;;6.25;4.78;;;23.50;62.90;;;;;;4957021;28;20035;-84
2021/06/29 06:35:22;;;;;;;6.15;4.78;;;23.50;62.90;;;;;;4969520;28;20463;-84
2021/06/29 06:37:48;;;;;;;5.82;4.68;;;23.50;62.90;;;;;;4955227;28;20039;-84
2021/06/29 06:40:14;;;;;;;5.88;4.65;;;23.50;62.90;;;;;;4966635;28;20034;-84
2021/06/29 06:42:40;;;;;;;6.07;4.65;;;23.50;63.60;;;;;;4944419;28;20113;-85
2021/06/29 06:45:08;;;;;;;6.00;4.75;;;23.50;63.00;;;;;;4970249;28;20026;-84
2021/06/29 06:47:35;;;;;;;7.13;4.85;;;23.50;63.00;;;;;;4977559;28;20055;-84
2021/06/29 06:50:01;;;;;;;6.43;4.93;;;23.50;63.00;;;;;;4954019;28;20026;-84
2021/06/29 06:52:27;;;;;;;6.25;5.10;;;23.50;63.00;;;;;;4969052;28;20045;-83
2021/06/29 06:54:53;;;;;;;6.68;5.45;;;23.50;63.00;;;;;;4967808;28;20033;-83
2021/06/29 06:57:19;;;;;;;6.40;4.95;;;23.50;63.10;;;;;;4941283;28;20047;-84
2021/06/29 06:59:44;;;;;;;6.65;5.15;;;23.50;63.10;;;;;;4965673;28;20035;-85
2021/06/29 07:02:10;;;;;;;6.90;5.60;;;23.50;63.10;;;;;;4943245;28;20038;-84
2021/06/29 07:04:36;;;;;;;7.38;5.40;;;23.50;63.10;;;;;;4966632;28;20353;-83
2021/06/29 07:07:03;;;;;;;6.70;4.95;;;23.50;63.10;;;;;;4965978;28;20027;-84
2021/06/29 07:09:28;;;;;;;8.25;5.47;;;23.60;63.20;;;;;;4963129;28;20491;-84
2021/06/29 07:11:54;;;;;;;7.40;5.97;;;23.60;63.20;;;;;;4953222;28;20042;-84
2021/06/29 07:14:35;;;;;;;6.53;4.97;;;23.60;63.20;;;;;;4917845;28;20058;-83
2021/06/29 07:17:01;;;;;;;6.72;5.65;;;23.60;63.20;;;;;;4950141;28;20041;-84
2021/06/29 07:19:26;;;;;;;6.43;5.43;;;23.60;63.20;;;;;;4952163;28;20042;-83
2021/06/29 07:21:53;;;;;;;7.20;5.85;;;23.60;63.30;;;;;;4968828;28;20034;-84
2021/06/29 07:24:18;;;;;;;6.80;5.85;;;23.60;63.30;;;;;;4968485;28;20108;-83
2021/06/29 07:26:44;;;;;;;6.80;5.72;;;23.70;63.30;;;;;;4964700;28;20074;-83
2021/06/29 07:29:10;;;;;;;7.68;5.88;;;23.60;63.30;;;;;;4965662;28;20027;-83
2021/06/29 07:31:36;;;;;;;7.53;5.97;;;23.70;63.30;;;;;;4967249;28;20047;-83
2021/06/29 07:34:02;;;;;;;6.72;5.78;;;23.70;63.30;;;;;;4985250;28;20030;-83
2021/06/29 07:36:28;;;;;;;7.10;6.00;;;23.70;63.30;;;;;;4959869;28;20042;-83
2021/06/29 07:38:55;;;;;;;6.93;5.90;;;23.70;63.30;;;;;;4960643;28;20023;-83
2021/06/29 07:41:22;;;;;;;6.57;5.47;;;23.70;63.30;;;;;;4984545;28;20023;-82
2021/06/29 07:43:48;;;;;;;7.10;5.97;;;23.70;63.40;;;;;;4965726;28;20030;-83
2021/06/29 07:46:14;;;;;;;7.78;6.68;;;23.70;63.40;;;;;;4978686;28;20442;-83
2021/06/29 07:48:40;;;;;;;6.63;5.93;;;23.70;63.40;;;;;;4968098;28;20145;-84
2021/06/29 07:51:08;;;;;;;7.72;6.45;;;23.70;63.30;;;;;;4968300;28;20109;-83
2021/06/29 07:53:34;;;;;;;6.80;6.05;;;23.70;63.40;;;;;;4960878;28;20066;-84
2021/06/29 07:56:00;;;;;;;6.78;5.47;;;23.70;63.40;;;;;;4941417;28;20488;-83
2021/06/29 07:58:25;;;;;;;7.72;6.55;;;23.70;63.40;;;;;;4935516;29;20028;-84
2021/06/29 08:00:51;;;;;;;8.38;6.80;;;23.70;63.30;;;;;;4942082;28;20030;-83
2021/06/29 08:03:17;;;;;;;7.53;6.03;;;23.70;63.30;;;;;;4980774;28;20035;-83
2021/06/29 08:05:43;;;;;;;7.53;6.22;;;23.70;63.30;;;;;;4945625;29;20058;-82
2021/06/29 08:08:09;;;;;;;7.55;6.57;;;23.70;63.30;;;;;;4966484;28;20042;-83
2021/06/29 08:10:36;;;;;;;8.13;7.20;;;23.70;63.30;;;;;;4968361;28;20034;-83
2021/06/29 08:13:02;;;;;;;8.43;6.70;;;23.70;63.30;;;;;;4968029;28;20445;-82
2021/06/29 08:15:28;;;;;;;7.75;6.55;;;23.70;63.30;;;;;;4980502;28;20476;-83
2021/06/29 08:17:54;;;;;;;7.40;6.35;;;23.70;63.30;;;;;;4945775;28;20041;-81
2021/06/29 08:20:20;;;;;;;8.15;6.82;;;23.70;63.40;;;;;;4948205;28;20023;-83
2021/06/29 08:22:47;;;;;;;9.10;7.13;;;23.70;63.40;;;;;;4968864;28;20427;-82
2021/06/29 08:25:13;;;;;;;7.57;6.78;;;23.70;63.50;;;;;;4978767;28;20094;-83
2021/06/29 08:27:39;;;;;;;7.45;6.28;;;23.70;63.50;;;;;;4951768;28;20030;-82
2021/06/29 08:30:11;;;;;;;7.30;6.22;;;23.80;63.60;;;;;;4967602;28;20022;-82
2021/06/29 08:32:38;;;;;;;7.00;5.50;;;23.70;63.60;;;;;;4949590;28;20038;-82
2021/06/29 08:35:11;;;;;;;8.30;6.72;;;23.80;63.60;;;;;;4961402;28;20526;-82
2021/06/29 08:37:37;;;;;;;7.72;6.00;;;23.80;63.70;;;;;;4948450;28;20027;-82
2021/06/29 08:40:06;;;;;;;7.65;6.50;;;23.70;63.60;;;;;;4952107;28;20027;-83
2021/06/29 08:42:34;;;;;;;7.22;6.20;;;23.80;63.70;;;;;;4979330;28;20033;-83
2021/06/29 08:45:01;;;;;;;8.20;7.03;;;23.80;63.70;;;;;;4965158;28;20038;-83
2021/06/29 08:47:27;;;;;;;7.68;6.22;;;23.80;63.70;;;;;;4964159;28;20053;-83
2021/06/29 08:49:53;;;;;;;8.30;6.75;;;23.80;63.70;;;;;;4959719;28;20460;-83
2021/06/29 08:52:18;;;;;;;7.55;5.90;;;23.70;63.60;;;;;;4956865;28;20093;-83
2021/06/29 08:54:44;;;;;;;8.70;7.43;;;23.80;63.70;;;;;;4961588;28;20140;-82
2021/06/29 08:57:10;;;;;;;8.05;6.85;;;23.80;64.30;;;;;;4967391;28;20057;-81
2021/06/29 08:59:36;;;;;;;8.20;6.97;;;23.70;63.60;;;;;;4947157;28;20030;-81
2021/06/29 09:02:03;;;;;;;8.15;6.70;;;23.70;63.60;;;;;;4955698;28;20081;-80
2021/06/29 09:04:50;;;;;;;8.50;7.13;;;23.80;63.60;;;;;;4960421;28;20027;-80
2021/06/29 09:07:23;;;;;;;8.15;6.43;;;23.80;63.70;;;;;;4959069;28;20057;-82
2021/06/29 09:09:55;;;;;;;8.57;7.40;;;23.80;63.60;;;;;;4983003;28;20037;-81
2021/06/29 09:12:43;;;;;;;8.20;7.30;;;23.80;63.50;;;;;;4960605;28;20063;-82
2021/06/29 09:15:27;;;;;;;8.52;7.13;;;23.70;63.60;;;;;;4963503;28;20019;-80
2021/06/29 09:17:56;;;;;;;8.30;7.17;;;23.70;64.30;;;;;;4957140;28;20044;-81
2021/06/29 09:20:33;;;;;;;7.90;6.63;;;23.70;63.50;;;;;;4979564;28;20031;-83
2021/06/29 09:23:27;;;;;;;8.02;6.85;;;23.70;63.60;;;;;;4965730;28;20035;-81
2021/06/29 09:25:59;;;;;;;10.82;7.82;;;23.80;63.70;;;;;;4955956;28;20137;-78
2021/06/29 09:28:28;;;;;;;9.90;7.82;;;23.80;63.60;;;;;;4977834;28;20022;-80
2021/06/29 09:31:06;;;;;;;8.95;7.68;;;23.70;63.70;;;;;;4985895;28;20376;-78
2021/06/29 09:33:41;;;;;;;8.68;7.53;;;23.70;63.70;;;;;;4976755;28;20108;-78
2021/06/29 09:36:21;;;;;;;8.55;7.40;;;23.70;63.70;;;;;;4982800;28;20031;-80
2021/06/29 09:38:49;;;;;;;8.07;6.70;;;23.70;63.90;;;;;;4952764;28;20035;-79
2021/06/29 09:41:23;;;;;;;8.50;7.25;;;23.80;63.90;;;;;;4951724;28;20421;-79
2021/06/29 09:43:55;;;;;;;10.48;8.02;;;23.80;64.00;;;;;;4964681;28;20452;-81
2021/06/29 09:46:26;;;;;;;9.07;7.38;;;23.80;64.00;;;;;;4969008;28;20416;-78
2021/06/29 09:48:56;;;;;;;8.80;7.40;;;23.80;64.00;;;;;;4958005;28;20399;-79
2021/06/29 09:51:26;;;;;;;9.43;8.43;;;23.80;64.00;;;;;;4982359;28;20038;-79
2021/06/29 09:53:54;;;;;;;8.75;7.75;;;23.80;64.00;;;;;;4983711;28;20105;-79
2021/06/29 09:56:32;;;;;;;9.05;7.63;;;23.80;64.00;;;;;;4969456;28;20026;-79
2021/06/29 09:58:59;;;;;;;9.95;8.07;;;23.80;64.10;;;;;;4968098;28;20026;-79
2021/06/29 10:01:29;;;;;;;9.50;7.45;;;23.90;64.00;;;;;;4983574;28;20023;-79
2021/06/29 10:03:56;;;;;;;9.10;7.93;;;23.90;64.00;;;;;;4974356;28;20038;-79
2021/06/29 10:06:31;;;;;;;9.25;7.95;;;23.90;64.10;;;;;;4973972;28;20031;-78
2021/06/29 10:09:16;;;;;;;8.80;7.60;;;24.00;64.20;;;;;;4966185;28;20124;-78
2021/06/29 10:11:58;;;;;;;9.05;7.45;;;24.00;64.20;;;;;;4976526;28;20469;-79
2021/06/29 10:14:24;;;;;;;8.32;7.07;;;24.00;64.10;;;;;;4965968;28;20039;-78
2021/06/29 10:16:52;;;;;;;8.68;7.28;;;24.00;64.00;;;;;;4971923;28;20042;-79
2021/06/29 10:22:01;;;;;;;9.38;7.97;;;24.00;64.10;;;;;;4967569;28;20043;-79
2021/06/29 10:24:30;;;;;;;9.10;7.68;;;24.10;64.10;;;;;;4983591;28;20027;-78
2021/06/29 10:26:57;;;;;;;9.10;7.72;;;24.10;64.10;;;;;;4986055;28;20177;-78
2021/06/29 10:29:25;;;;;;;9.40;7.95;;;24.10;64.10;;;;;;4968950;28;20022;-79
2021/06/29 10:32:13;;;;;;;9.30;7.57;;;24.20;64.10;;;;;;4981934;28;20498;-80
2021/06/29 10:34:40;;;;;;;9.15;7.78;;;24.20;64.20;;;;;;4950215;28;20073;-79
2021/06/29 10:37:07;;;;;;;9.15;7.32;;;24.20;64.00;;;;;;4980859;28;20077;-78
2021/06/29 10:39:34;;;;;;;9.70;8.35;;;24.30;64.00;;;;;;4962478;28;20035;-78
2021/06/29 10:42:07;;;;;;;9.02;7.65;;;24.30;64.10;;;;;;4952639;28;20034;-79
2021/06/29 10:44:43;;;;;;;8.48;7.55;;;24.30;64.10;;;;;;4984770;28;20029;-79
2021/06/29 10:47:30;;;;;;;8.02;7.13;;;24.30;64.10;;;;;;4974558;28;20129;-79
2021/06/29 10:49:58;;;;;;;10.05;7.70;;;24.40;64.20;;;;;;4983934;28;20044;-78
2021/06/29 10:52:24;;;;;;;10.32;8.30;;;24.40;64.00;;;;;;4945450;29;20031;-79
2021/06/29 10:55:11;;;;;;;9.52;7.80;;;24.40;64.00;;;;;;4963680;28;20077;-79
2021/06/29 10:57:43;;;;;;;8.80;7.47;;;24.50;64.00;;;;;;4984564;28;20026;-79
2021/06/29 11:00:21;;;;;;;9.75;8.60;;;24.50;64.00;;;;;;4957399;28;20306;-79
2021/06/29 11:02:56;;;;;;;9.00;7.78;;;24.50;64.00;;;;;;4980718;28;20062;-78
2021/06/29 11:05:28;;;;;;;9.65;8.63;;;24.60;64.00;;;;;;4973507;28;20030;-79
2021/06/29 11:08:13;;;;;;;8.95;7.88;;;24.60;63.80;;;;;;4965432;28;20035;-78
2021/06/29 11:10:45;;;;;;;8.18;7.20;;;24.60;63.90;;;;;;4973380;28;20022;-79
2021/06/29 11:13:11;;;;;;;9.02;7.72;;;24.60;63.80;;;;;;4982894;28;20644;-78
2021/06/29 11:15:40;;;;;;;8.70;7.80;;;24.70;63.80;;;;;;4964993;28;20026;-79
2021/06/29 11:18:06;;;;;;;7.75;6.93;;;24.70;63.80;;;;;;4981194;28;20038;-79
2021/06/29 11:20:50;;;;;;;8.32;7.43;;;24.70;63.70;;;;;;4967523;28;20081;-79
2021/06/29 11:23:23;;;;;;;8.65;7.50;;;24.70;63.80;;;;;;4967450;28;20037;-80
2021/06/29 11:25:54;;;;;;;9.25;7.82;;;24.80;63.70;;;;;;4982111;28;20443;-79
2021/06/29 11:28:33;;;;;;;8.18;7.03;;;24.80;63.70;;;;;;4964682;28;20054;-78
2021/06/29 11:31:06;;;;;;;8.50;7.63;;;24.80;63.80;;;;;;4983854;28;20039;-80
2021/06/29 11:33:40;;;;;;;8.25;6.90;;;24.90;63.70;;;;;;4982329;28;20042;-80
2021/06/29 11:36:29;;;;;;;9.13;7.70;;;24.90;63.70;;;;;;4964655;28;20027;-79
2021/06/29 11:39:13;;;;;;;7.88;6.88;;;24.90;63.60;;;;;;4980195;28;20086;-79
2021/06/29 11:41:40;;;;;;;8.23;7.10;;;25.00;63.60;;;;;;4981540;28;20364;-79
2021/06/29 11:44:05;;;;;;;8.20;7.35;;;25.00;63.50;;;;;;4984085;28;20023;-79
2021/06/29 11:47:02;;;;;;;9.43;7.22;;;25.00;63.50;;;;;;4952353;28;20385;-80
2021/06/29 11:49:46;;;;;;;7.70;6.90;;;25.00;63.70;;;;;;4956442;28;20046;-79
2021/06/29 11:52:16;;;;;;;8.03;7.23;;;25.10;63.60;;;;;;4953363;28;20049;-80
2021/06/29 11:54:49;;;;;;;7.70;6.85;;;25.10;64.30;;;;;;4984636;28;20038;-79
2021/06/29 11:57:17;;;;;;;7.20;6.50;;;25.10;63.60;;;;;;4957507;28;20486;-80
2021/06/29 11:59:43;;;;;;;7.25;6.47;;;25.20;63.70;;;;;;4964213;28;20026;-79
2021/06/29 12:02:12;;;;;;;8.07;7.05;;;25.20;63.60;;;;;;4941626;28;20045;-79
2021/06/29 12:04:51;;;;;;;8.38;6.90;;;25.30;63.60;;;;;;4975079;28;20471;-79
2021/06/29 12:07:35;;;;;;;7.18;6.38;;;25.30;63.60;;;;;;4975324;28;20035;-80
2021/06/29 12:10:13;;;;;;;7.20;6.22;;;25.30;63.50;;;;;;4967022;28;20034;-80
2021/06/29 12:12:45;;;;;;;6.38;5.70;;;25.40;63.40;;;;;;4977151;28;20044;-80
2021/06/29 12:15:15;;;;;;;7.05;5.95;;;25.40;63.40;;;;;;4966237;28;20113;-80
2021/06/29 12:17:47;;;;;;;7.40;6.32;;;25.50;63.40;;;;;;4963911;28;20023;-81
2021/06/29 12:20:15;;;;;;;6.82;6.13;;;25.50;63.40;;;;;;4964067;28;20042;-81
2021/06/29 12:22:42;;;;;;;6.95;6.05;;;25.50;63.40;;;;;;4966803;28;20113;-80
2021/06/29 12:25:17;;;;;;;6.63;5.53;;;25.60;63.50;;;;;;4967199;28;20030;-80
2021/06/29 12:27:49;;;;;;;6.82;5.80;;;25.60;63.40;;;;;;4972049;28;20034;-80
2021/06/29 12:30:31;;;;;;;6.85;6.10;;;25.70;63.40;;;;;;4964397;28;20035;-80
2021/06/29 12:32:58;;;;;;;6.70;5.55;;;25.70;63.30;;;;;;4960182;28;20101;-80
2021/06/29 12:35:30;;;;;;;6.05;5.25;;;25.80;63.20;;;;;;4967158;28;20033;-81
2021/06/29 12:38:05;;;;;;;6.43;5.57;;;25.80;63.30;;;;;;4969328;28;20018;-80
2021/06/29 12:40:34;;;;;;;5.50;4.75;;;25.90;63.40;;;;;;4982385;28;20086;-81
2021/06/29 12:43:15;;;;;;;6.65;5.95;;;25.90;63.20;;;;;;4947796;28;20464;-80
2021/06/29 12:45:41;;;;;;;6.75;5.70;;;25.90;63.10;;;;;;4948078;28;20479;-80
2021/06/29 12:48:09;;;;;;;6.20;5.20;;;26.00;63.10;;;;;;4974510;28;20061;-80
2021/06/29 12:50:37;;;;;;;6.15;5.35;;;26.00;63.00;;;;;;4965386;28;20069;-80
2021/06/29 12:53:03;;;;;;;6.05;5.35;;;26.00;63.00;;;;;;4963756;28;20043;-81
2021/06/29 12:55:30;;;;;;;6.32;5.40;;;26.10;62.90;;;;;;4960175;28;20061;-81
2021/06/29 12:58:05;;;;;;;5.95;4.82;;;26.10;62.80;;;;;;4970467;28;20035;-81
2021/06/29 13:00:32;;;;;;;5.88;4.68;;;26.20;62.80;;;;;;4966635;28;20045;-81
2021/06/29 13:02:59;;;;;;;6.28;4.93;;;26.20;62.70;;;;;;4966153;28;20030;-81